sensor_id;sensor_type;location;lat;lon;timestamp;P1;durP1;ratioP1;P2;durP2;ratioP2
21894;SDS011;11112;51.270;7.224;2022-09-06T00:01:47;9.70;;;2.72;;
21894;SDS011;11112;51.270;7.224;2022-09-06T00:04:14;5.15;;;2.40;;
21894;SDS011;11112;51.270;7.224;2022-09-06T00:06:43;5.30;;;2.10;;
21894;SDS011;11112;51.270;7.224;2022-09-06T00:09:13;4.60;;;1.77;;
21894;SDS011;11112;51.270;7.224;2022-09-06T00:11:40;4.65;;;1.90;;
21894;SDS011;11112;51.270;7.224;2022-09-06T00:14:08;5.00;;;1.70;;
21894;SDS011;11112;51.270;7.224;2022-09-06T00:16:35;3.15;;;1.88;;
21894;SDS011;11112;51.270;7.224;2022-09-06T00:19:04;4.80;;;2.20;;
21894;SDS011;11112;51.270;7.224;2022-09-06T00:21:31;3.78;;;2.00;;
21894;SDS011;11112;51.270;7.224;2022-09-06T00:24:01;2.63;;;1.90;;
21894;SDS011;11112;51.270;7.224;2022-09-06T00:26:28;4.72;;;1.90;;
21894;SDS011;11112;51.270;7.224;2022-09-06T00:28:56;5.45;;;2.13;;
21894;SDS011;11112;51.270;7.224;2022-09-06T00:31:24;6.03;;;2.05;;
21894;SDS011;11112;51.270;7.224;2022-09-06T00:33:52;4.43;;;2.20;;
21894;SDS011;11112;51.270;7.224;2022-09-06T00:36:20;3.65;;;1.83;;
21894;SDS011;11112;51.270;7.224;2022-09-06T00:38:48;6.45;;;2.53;;
21894;SDS011;11112;51.270;7.224;2022-09-06T00:41:16;4.93;;;2.42;;
21894;SDS011;11112;51.270;7.224;2022-09-06T00:43:44;4.68;;;2.15;;
21894;SDS011;11112;51.270;7.224;2022-09-06T00:46:13;5.07;;;2.00;;
21894;SDS011;11112;51.270;7.224;2022-09-06T00:48:43;5.18;;;2.03;;
21894;SDS011;11112;51.270;7.224;2022-09-06T00:51:15;4.10;;;1.92;;
21894;SDS011;11112;51.270;7.224;2022-09-06T00:53:43;3.55;;;1.58;;
21894;SDS011;11112;51.270;7.224;2022-09-06T00:56:11;3.03;;;1.70;;
21894;SDS011;11112;51.270;7.224;2022-09-06T00:58:40;3.67;;;1.80;;
21894;SDS011;11112;51.270;7.224;2022-09-06T01:01:08;4.05;;;1.60;;
21894;SDS011;11112;51.270;7.224;2022-09-06T01:03:35;6.25;;;1.45;;
21894;SDS011;11112;51.270;7.224;2022-09-06T01:06:08;6.72;;;1.30;;
21894;SDS011;11112;51.270;7.224;2022-09-06T01:08:54;2.53;;;1.27;;
21894;SDS011;11112;51.270;7.224;2022-09-06T01:11:40;4.88;;;1.48;;
21894;SDS011;11112;51.270;7.224;2022-09-06T01:14:27;2.47;;;1.40;;
21894;SDS011;11112;51.270;7.224;2022-09-06T01:17:08;5.10;;;1.70;;
21894;SDS011;11112;51.270;7.224;2022-09-06T01:23:02;8.80;;;1.70;;
21894;SDS011;11112;51.270;7.224;2022-09-06T01:26:13;5.47;;;1.75;;
21894;SDS011;11112;51.270;7.224;2022-09-06T01:29:13;4.60;;;1.60;;
21894;SDS011;11112;51.270;7.224;2022-09-06T01:31:50;5.45;;;1.90;;
21894;SDS011;11112;51.270;7.224;2022-09-06T01:36:54;7.40;;;1.80;;
21894;SDS011;11112;51.270;7.224;2022-09-06T01:39:26;4.88;;;1.90;;
21894;SDS011;11112;51.270;7.224;2022-09-06T01:41:56;5.85;;;1.80;;
21894;SDS011;11112;51.270;7.224;2022-09-06T01:44:29;7.03;;;1.95;;
21894;SDS011;11112;51.270;7.224;2022-09-06T01:46:59;8.60;;;2.10;;
21894;SDS011;11112;51.270;7.224;2022-09-06T01:49:43;7.55;;;2.13;;
21894;SDS011;11112;51.270;7.224;2022-09-06T01:52:22;4.82;;;2.00;;
21894;SDS011;11112;51.270;7.224;2022-09-06T01:55:02;5.95;;;1.83;;
21894;SDS011;11112;51.270;7.224;2022-09-06T01:57:45;5.10;;;2.00;;
21894;SDS011;11112;51.270;7.224;2022-09-06T02:00:23;4.55;;;2.00;;
21894;SDS011;11112;51.270;7.224;2022-09-06T02:02:53;10.98;;;2.13;;
21894;SDS011;11112;51.270;7.224;2022-09-06T02:05:32;5.43;;;2.08;;
21894;SDS011;11112;51.270;7.224;2022-09-06T02:08:05;10.38;;;2.42;;
21894;SDS011;11112;51.270;7.224;2022-09-06T02:10:38;6.82;;;2.10;;
21894;SDS011;11112;51.270;7.224;2022-09-06T02:13:10;8.88;;;2.15;;
21894;SDS011;11112;51.270;7.224;2022-09-06T02:15:43;4.38;;;1.90;;
21894;SDS011;11112;51.270;7.224;2022-09-06T02:18:17;6.40;;;2.00;;
21894;SDS011;11112;51.270;7.224;2022-09-06T02:20:50;6.72;;;2.00;;
21894;SDS011;11112;51.270;7.224;2022-09-06T02:23:21;6.03;;;2.10;;
21894;SDS011;11112;51.270;7.224;2022-09-06T02:25:53;6.90;;;2.10;;
21894;SDS011;11112;51.270;7.224;2022-09-06T02:28:25;8.37;;;2.23;;
21894;SDS011;11112;51.270;7.224;2022-09-06T02:30:54;7.38;;;2.30;;
21894;SDS011;11112;51.270;7.224;2022-09-06T02:33:27;7.30;;;2.30;;
21894;SDS011;11112;51.270;7.224;2022-09-06T02:36:01;7.60;;;2.40;;
21894;SDS011;11112;51.270;7.224;2022-09-06T02:38:32;7.88;;;2.30;;
21894;SDS011;11112;51.270;7.224;2022-09-06T02:41:03;5.75;;;2.20;;
21894;SDS011;11112;51.270;7.224;2022-09-06T02:43:32;8.10;;;2.50;;
21894;SDS011;11112;51.270;7.224;2022-09-06T02:46:01;4.07;;;2.15;;
21894;SDS011;11112;51.270;7.224;2022-09-06T02:48:28;8.15;;;2.30;;
21894;SDS011;11112;51.270;7.224;2022-09-06T02:50:55;4.78;;;2.40;;
21894;SDS011;11112;51.270;7.224;2022-09-06T02:53:22;8.57;;;2.38;;
21894;SDS011;11112;51.270;7.224;2022-09-06T02:55:50;7.10;;;2.30;;
21894;SDS011;11112;51.270;7.224;2022-09-06T02:58:18;7.30;;;2.28;;
21894;SDS011;11112;51.270;7.224;2022-09-06T03:00:45;4.82;;;2.40;;
21894;SDS011;11112;51.270;7.224;2022-09-06T03:03:14;5.82;;;2.20;;
21894;SDS011;11112;51.270;7.224;2022-09-06T03:05:41;4.05;;;1.85;;
21894;SDS011;11112;51.270;7.224;2022-09-06T03:08:12;5.30;;;2.17;;
21894;SDS011;11112;51.270;7.224;2022-09-06T03:10:39;6.88;;;2.30;;
21894;SDS011;11112;51.270;7.224;2022-09-06T03:13:06;6.80;;;2.22;;
21894;SDS011;11112;51.270;7.224;2022-09-06T03:15:33;7.85;;;2.55;;
21894;SDS011;11112;51.270;7.224;2022-09-06T03:18:00;5.18;;;2.40;;
21894;SDS011;11112;51.270;7.224;2022-09-06T03:20:29;4.47;;;2.30;;
21894;SDS011;11112;51.270;7.224;2022-09-06T03:22:56;4.95;;;2.15;;
21894;SDS011;11112;51.270;7.224;2022-09-06T03:25:24;7.57;;;2.20;;
21894;SDS011;11112;51.270;7.224;2022-09-06T03:27:51;8.07;;;2.42;;
21894;SDS011;11112;51.270;7.224;2022-09-06T03:30:18;6.28;;;2.13;;
21894;SDS011;11112;51.270;7.224;2022-09-06T03:32:46;11.13;;;2.67;;
21894;SDS011;11112;51.270;7.224;2022-09-06T03:35:13;8.57;;;2.22;;
21894;SDS011;11112;51.270;7.224;2022-09-06T03:37:42;6.55;;;2.38;;
21894;SDS011;11112;51.270;7.224;2022-09-06T03:40:09;6.22;;;2.10;;
21894;SDS011;11112;51.270;7.224;2022-09-06T03:42:37;4.72;;;2.10;;
21894;SDS011;11112;51.270;7.224;2022-09-06T03:45:05;7.95;;;2.33;;
21894;SDS011;11112;51.270;7.224;2022-09-06T03:47:33;8.77;;;2.30;;
21894;SDS011;11112;51.270;7.224;2022-09-06T03:50:00;7.53;;;2.63;;
21894;SDS011;11112;51.270;7.224;2022-09-06T03:52:27;6.57;;;2.30;;
21894;SDS011;11112;51.270;7.224;2022-09-06T03:54:56;5.82;;;2.45;;
21894;SDS011;11112;51.270;7.224;2022-09-06T03:57:23;10.07;;;2.30;;
21894;SDS011;11112;51.270;7.224;2022-09-06T03:59:50;7.57;;;2.50;;
21894;SDS011;11112;51.270;7.224;2022-09-06T04:02:18;5.53;;;2.50;;
21894;SDS011;11112;51.270;7.224;2022-09-06T04:04:45;8.18;;;2.60;;
21894;SDS011;11112;51.270;7.224;2022-09-06T04:07:12;6.75;;;2.75;;
21894;SDS011;11112;51.270;7.224;2022-09-06T04:09:39;8.70;;;2.50;;
21894;SDS011;11112;51.270;7.224;2022-09-06T04:12:08;4.63;;;2.35;;
21894;SDS011;11112;51.270;7.224;2022-09-06T04:14:37;5.65;;;2.40;;
21894;SDS011;11112;51.270;7.224;2022-09-06T04:17:04;5.63;;;2.50;;
21894;SDS011;11112;51.270;7.224;2022-09-06T04:19:31;6.35;;;2.58;;
21894;SDS011;11112;51.270;7.224;2022-09-06T04:21:58;7.03;;;2.33;;
21894;SDS011;11112;51.270;7.224;2022-09-06T04:24:26;4.15;;;2.35;;
21894;SDS011;11112;51.270;7.224;2022-09-06T04:26:53;4.80;;;2.63;;
21894;SDS011;11112;51.270;7.224;2022-09-06T04:29:25;5.95;;;2.78;;
21894;SDS011;11112;51.270;7.224;2022-09-06T04:31:52;7.15;;;2.50;;
21894;SDS011;11112;51.270;7.224;2022-09-06T04:34:19;3.88;;;2.50;;
21894;SDS011;11112;51.270;7.224;2022-09-06T04:36:46;6.10;;;2.60;;
21894;SDS011;11112;51.270;7.224;2022-09-06T04:39:14;8.45;;;2.90;;
21894;SDS011;11112;51.270;7.224;2022-09-06T04:41:41;6.03;;;2.60;;
21894;SDS011;11112;51.270;7.224;2022-09-06T04:44:11;10.57;;;2.90;;
21894;SDS011;11112;51.270;7.224;2022-09-06T04:46:41;7.20;;;2.83;;
21894;SDS011;11112;51.270;7.224;2022-09-06T04:49:08;10.60;;;3.08;;
21894;SDS011;11112;51.270;7.224;2022-09-06T04:51:35;8.00;;;2.95;;
21894;SDS011;11112;51.270;7.224;2022-09-06T04:54:03;10.02;;;2.80;;
21894;SDS011;11112;51.270;7.224;2022-09-06T04:56:34;8.25;;;3.10;;
21894;SDS011;11112;51.270;7.224;2022-09-06T04:59:01;8.25;;;2.70;;
21894;SDS011;11112;51.270;7.224;2022-09-06T05:01:28;8.18;;;3.00;;
21894;SDS011;11112;51.270;7.224;2022-09-06T05:03:57;8.77;;;2.95;;
21894;SDS011;11112;51.270;7.224;2022-09-06T05:06:25;7.90;;;3.00;;
21894;SDS011;11112;51.270;7.224;2022-09-06T05:08:52;6.28;;;3.42;;
21894;SDS011;11112;51.270;7.224;2022-09-06T05:11:19;8.07;;;3.58;;
21894;SDS011;11112;51.270;7.224;2022-09-06T05:13:47;7.70;;;3.33;;
21894;SDS011;11112;51.270;7.224;2022-09-06T05:16:15;7.10;;;3.22;;
21894;SDS011;11112;51.270;7.224;2022-09-06T05:18:42;7.88;;;3.13;;
21894;SDS011;11112;51.270;7.224;2022-09-06T05:21:11;6.68;;;3.22;;
21894;SDS011;11112;51.270;7.224;2022-09-06T05:23:38;9.75;;;3.05;;
21894;SDS011;11112;51.270;7.224;2022-09-06T05:26:06;8.20;;;3.10;;
21894;SDS011;11112;51.270;7.224;2022-09-06T05:28:33;9.65;;;3.10;;
21894;SDS011;11112;51.270;7.224;2022-09-06T05:31:04;7.15;;;2.95;;
21894;SDS011;11112;51.270;7.224;2022-09-06T05:33:38;6.68;;;3.42;;
21894;SDS011;11112;51.270;7.224;2022-09-06T05:36:05;7.30;;;3.00;;
21894;SDS011;11112;51.270;7.224;2022-09-06T05:38:35;7.32;;;3.30;;
21894;SDS011;11112;51.270;7.224;2022-09-06T05:41:02;8.60;;;2.83;;
21894;SDS011;11112;51.270;7.224;2022-09-06T05:43:29;7.20;;;2.88;;
21894;SDS011;11112;51.270;7.224;2022-09-06T05:45:57;7.95;;;3.45;;
21894;SDS011;11112;51.270;7.224;2022-09-06T05:48:24;7.07;;;2.85;;
21894;SDS011;11112;51.270;7.224;2022-09-06T05:50:58;9.57;;;3.58;;
21894;SDS011;11112;51.270;7.224;2022-09-06T05:53:32;7.32;;;2.60;;
21894;SDS011;11112;51.270;7.224;2022-09-06T05:56:02;7.15;;;3.38;;
21894;SDS011;11112;51.270;7.224;2022-09-06T05:58:31;7.00;;;2.85;;
21894;SDS011;11112;51.270;7.224;2022-09-06T06:01:06;4.05;;;2.45;;
21894;SDS011;11112;51.270;7.224;2022-09-06T06:03:41;6.15;;;2.65;;
21894;SDS011;11112;51.270;7.224;2022-09-06T06:06:09;7.38;;;2.60;;
21894;SDS011;11112;51.270;7.224;2022-09-06T06:08:38;5.93;;;2.50;;
21894;SDS011;11112;51.270;7.224;2022-09-06T06:11:05;8.95;;;2.63;;
21894;SDS011;11112;51.270;7.224;2022-09-06T06:13:33;6.00;;;2.50;;
21894;SDS011;11112;51.270;7.224;2022-09-06T06:16:03;8.73;;;3.13;;
21894;SDS011;11112;51.270;7.224;2022-09-06T06:18:31;4.95;;;2.97;;
21894;SDS011;11112;51.270;7.224;2022-09-06T06:21:06;5.50;;;2.67;;
21894;SDS011;11112;51.270;7.224;2022-09-06T06:23:34;4.53;;;2.65;;
21894;SDS011;11112;51.270;7.224;2022-09-06T06:26:07;4.22;;;2.47;;
21894;SDS011;11112;51.270;7.224;2022-09-06T06:28:37;7.32;;;2.55;;
21894;SDS011;11112;51.270;7.224;2022-09-06T06:31:06;4.60;;;2.28;;
21894;SDS011;11112;51.270;7.224;2022-09-06T06:33:36;5.43;;;3.00;;
21894;SDS011;11112;51.270;7.224;2022-09-06T06:36:04;6.07;;;2.85;;
21894;SDS011;11112;51.270;7.224;2022-09-06T06:38:35;7.32;;;2.60;;
21894;SDS011;11112;51.270;7.224;2022-09-06T06:41:06;3.95;;;2.40;;
21894;SDS011;11112;51.270;7.224;2022-09-06T06:43:35;4.93;;;2.20;;
21894;SDS011;11112;51.270;7.224;2022-09-06T06:46:02;7.22;;;2.33;;
21894;SDS011;11112;51.270;7.224;2022-09-06T06:48:32;4.07;;;2.25;;
21894;SDS011;11112;51.270;7.224;2022-09-06T06:51:00;3.78;;;2.20;;
21894;SDS011;11112;51.270;7.224;2022-09-06T06:53:27;5.78;;;2.25;;
21894;SDS011;11112;51.270;7.224;2022-09-06T06:55:55;6.65;;;2.10;;
21894;SDS011;11112;51.270;7.224;2022-09-06T06:58:23;6.68;;;2.10;;
21894;SDS011;11112;51.270;7.224;2022-09-06T07:00:51;5.45;;;2.10;;
21894;SDS011;11112;51.270;7.224;2022-09-06T07:03:18;4.60;;;2.10;;
21894;SDS011;11112;51.270;7.224;2022-09-06T07:05:46;3.53;;;2.00;;
21894;SDS011;11112;51.270;7.224;2022-09-06T07:08:13;4.95;;;2.00;;
21894;SDS011;11112;51.270;7.224;2022-09-06T07:10:43;7.22;;;2.10;;
21894;SDS011;11112;51.270;7.224;2022-09-06T07:13:14;4.72;;;1.88;;
21894;SDS011;11112;51.270;7.224;2022-09-06T07:15:42;5.13;;;1.85;;
21894;SDS011;11112;51.270;7.224;2022-09-06T07:18:09;7.07;;;1.90;;
21894;SDS011;11112;51.270;7.224;2022-09-06T07:20:37;5.30;;;2.10;;
21894;SDS011;11112;51.270;7.224;2022-09-06T07:23:05;5.50;;;1.80;;
21894;SDS011;11112;51.270;7.224;2022-09-06T07:25:32;3.33;;;1.73;;
21894;SDS011;11112;51.270;7.224;2022-09-06T07:28:03;6.82;;;1.90;;
21894;SDS011;11112;51.270;7.224;2022-09-06T07:30:33;4.00;;;1.80;;
21894;SDS011;11112;51.270;7.224;2022-09-06T07:33:03;4.32;;;1.60;;
21894;SDS011;11112;51.270;7.224;2022-09-06T07:35:31;2.10;;;1.40;;
21894;SDS011;11112;51.270;7.224;2022-09-06T07:37:59;4.78;;;1.63;;
21894;SDS011;11112;51.270;7.224;2022-09-06T07:40:29;3.85;;;1.42;;
21894;SDS011;11112;51.270;7.224;2022-09-06T07:42:56;3.92;;;1.20;;
21894;SDS011;11112;51.270;7.224;2022-09-06T07:45:24;2.17;;;1.38;;
21894;SDS011;11112;51.270;7.224;2022-09-06T07:47:53;2.78;;;1.20;;
21894;SDS011;11112;51.270;7.224;2022-09-06T07:50:24;2.28;;;1.20;;
21894;SDS011;11112;51.270;7.224;2022-09-06T07:52:52;3.15;;;1.10;;
21894;SDS011;11112;51.270;7.224;2022-09-06T07:55:19;3.65;;;1.08;;
21894;SDS011;11112;51.270;7.224;2022-09-06T07:57:46;2.30;;;1.17;;
21894;SDS011;11112;51.270;7.224;2022-09-06T08:00:14;2.72;;;1.02;;
21894;SDS011;11112;51.270;7.224;2022-09-06T08:02:42;2.33;;;0.90;;
21894;SDS011;11112;51.270;7.224;2022-09-06T08:05:11;4.75;;;1.10;;
21894;SDS011;11112;51.270;7.224;2022-09-06T08:07:40;3.40;;;0.90;;
21894;SDS011;11112;51.270;7.224;2022-09-06T08:10:08;2.10;;;0.95;;
21894;SDS011;11112;51.270;7.224;2022-09-06T08:12:36;1.92;;;0.98;;
21894;SDS011;11112;51.270;7.224;2022-09-06T08:15:07;2.58;;;0.88;;
21894;SDS011;11112;51.270;7.224;2022-09-06T08:17:35;2.83;;;0.93;;
21894;SDS011;11112;51.270;7.224;2022-09-06T08:20:03;1.45;;;0.70;;
21894;SDS011;11112;51.270;7.224;2022-09-06T08:22:32;1.95;;;0.90;;
21894;SDS011;11112;51.270;7.224;2022-09-06T08:25:01;2.40;;;0.93;;
21894;SDS011;11112;51.270;7.224;2022-09-06T08:27:29;1.65;;;0.73;;
21894;SDS011;11112;51.270;7.224;2022-09-06T08:29:56;1.42;;;0.70;;
21894;SDS011;11112;51.270;7.224;2022-09-06T08:32:23;4.00;;;0.82;;
21894;SDS011;11112;51.270;7.224;2022-09-06T08:34:50;2.90;;;0.80;;
21894;SDS011;11112;51.270;7.224;2022-09-06T08:37:18;1.67;;;0.80;;
21894;SDS011;11112;51.270;7.224;2022-09-06T08:39:45;2.85;;;0.98;;
21894;SDS011;11112;51.270;7.224;2022-09-06T08:42:14;2.60;;;0.80;;
21894;SDS011;11112;51.270;7.224;2022-09-06T08:44:42;1.65;;;0.80;;
21894;SDS011;11112;51.270;7.224;2022-09-06T08:47:13;2.35;;;0.80;;
21894;SDS011;11112;51.270;7.224;2022-09-06T08:49:42;0.93;;;0.60;;
21894;SDS011;11112;51.270;7.224;2022-09-06T08:55:27;2.65;;;0.90;;
21894;SDS011;11112;51.270;7.224;2022-09-06T08:58:12;1.90;;;0.80;;
21894;SDS011;11112;51.270;7.224;2022-09-06T09:00:54;2.38;;;0.60;;
21894;SDS011;11112;51.270;7.224;2022-09-06T09:03:28;0.93;;;0.50;;
21894;SDS011;11112;51.270;7.224;2022-09-06T09:05:58;3.40;;;0.75;;
21894;SDS011;11112;51.270;7.224;2022-09-06T09:08:30;1.73;;;0.63;;
21894;SDS011;11112;51.270;7.224;2022-09-06T09:11:05;3.58;;;0.80;;
21894;SDS011;11112;51.270;7.224;2022-09-06T09:13:39;2.67;;;0.73;;
21894;SDS011;11112;51.270;7.224;2022-09-06T09:16:18;1.90;;;0.70;;
21894;SDS011;11112;51.270;7.224;2022-09-06T09:18:46;2.58;;;0.60;;
21894;SDS011;11112;51.270;7.224;2022-09-06T09:21:19;1.92;;;0.80;;
21894;SDS011;11112;51.270;7.224;2022-09-06T09:23:50;1.70;;;0.60;;
21894;SDS011;11112;51.270;7.224;2022-09-06T09:26:19;3.80;;;1.08;;
21894;SDS011;11112;51.270;7.224;2022-09-06T09:29:06;3.08;;;0.70;;
21894;SDS011;11112;51.270;7.224;2022-09-06T09:31:36;1.67;;;0.80;;
21894;SDS011;11112;51.270;7.224;2022-09-06T09:34:09;2.22;;;0.70;;
21894;SDS011;11112;51.270;7.224;2022-09-06T09:36:38;2.05;;;0.70;;
21894;SDS011;11112;51.270;7.224;2022-09-06T09:39:09;2.90;;;1.30;;
21894;SDS011;11112;51.270;7.224;2022-09-06T09:41:38;4.13;;;1.95;;
21894;SDS011;11112;51.270;7.224;2022-09-06T09:44:09;4.38;;;1.52;;
21894;SDS011;11112;51.270;7.224;2022-09-06T09:46:52;2.58;;;0.90;;
21894;SDS011;11112;51.270;7.224;2022-09-06T09:49:26;3.47;;;1.40;;
21894;SDS011;11112;51.270;7.224;2022-09-06T09:52:03;4.25;;;1.58;;
21894;SDS011;11112;51.270;7.224;2022-09-06T09:54:35;5.63;;;1.10;;
21894;SDS011;11112;51.270;7.224;2022-09-06T09:57:06;2.28;;;1.25;;
21894;SDS011;11112;51.270;7.224;2022-09-06T09:59:39;2.53;;;1.23;;
21894;SDS011;11112;51.270;7.224;2022-09-06T10:02:15;2.95;;;1.30;;
21894;SDS011;11112;51.270;7.224;2022-09-06T10:04:47;2.53;;;1.05;;
21894;SDS011;11112;51.270;7.224;2022-09-06T10:07:18;2.13;;;0.90;;
21894;SDS011;11112;51.270;7.224;2022-09-06T10:09:47;2.70;;;0.90;;
21894;SDS011;11112;51.270;7.224;2022-09-06T10:12:17;3.88;;;1.00;;
21894;SDS011;11112;51.270;7.224;2022-09-06T10:14:55;2.30;;;1.00;;
21894;SDS011;11112;51.270;7.224;2022-09-06T10:17:30;3.83;;;1.10;;
21894;SDS011;11112;51.270;7.224;2022-09-06T10:19:59;3.28;;;0.88;;
21894;SDS011;11112;51.270;7.224;2022-09-06T10:22:33;4.07;;;1.13;;
21894;SDS011;11112;51.270;7.224;2022-09-06T10:34:05;2.75;;;0.88;;
21894;SDS011;11112;51.270;7.224;2022-09-06T10:37:01;3.63;;;1.10;;
21894;SDS011;11112;51.270;7.224;2022-09-06T10:39:42;2.50;;;1.10;;
21894;SDS011;11112;51.270;7.224;2022-09-06T10:42:19;3.90;;;0.75;;
21894;SDS011;11112;51.270;7.224;2022-09-06T10:45:11;4.15;;;0.80;;
21894;SDS011;11112;51.270;7.224;2022-09-06T10:47:56;2.17;;;0.75;;
21894;SDS011;11112;51.270;7.224;2022-09-06T10:50:29;2.40;;;1.08;;
21894;SDS011;11112;51.270;7.224;2022-09-06T10:53:12;3.10;;;0.90;;
21894;SDS011;11112;51.270;7.224;2022-09-06T10:55:48;3.38;;;0.80;;
21894;SDS011;11112;51.270;7.224;2022-09-06T10:58:25;4.60;;;1.65;;
21894;SDS011;11112;51.270;7.224;2022-09-06T11:00:57;2.17;;;0.93;;
21894;SDS011;11112;51.270;7.224;2022-09-06T11:03:28;1.73;;;0.70;;
21894;SDS011;11112;51.270;7.224;2022-09-06T11:05:58;4.93;;;1.00;;
21894;SDS011;11112;51.270;7.224;2022-09-06T11:08:34;3.17;;;0.80;;
21894;SDS011;11112;51.270;7.224;2022-09-06T11:11:11;2.22;;;1.00;;
21894;SDS011;11112;51.270;7.224;2022-09-06T11:13:47;2.90;;;1.23;;
21894;SDS011;11112;51.270;7.224;2022-09-06T11:16:15;1.33;;;0.80;;
21894;SDS011;11112;51.270;7.224;2022-09-06T11:18:50;2.30;;;1.00;;
21894;SDS011;11112;51.270;7.224;2022-09-06T11:24:57;3.63;;;0.90;;
21894;SDS011;11112;51.270;7.224;2022-09-06T11:27:51;2.28;;;1.00;;
21894;SDS011;11112;51.270;7.224;2022-09-06T11:30:21;2.38;;;0.90;;
21894;SDS011;11112;51.270;7.224;2022-09-06T11:32:49;3.08;;;1.08;;
21894;SDS011;11112;51.270;7.224;2022-09-06T11:35:33;2.15;;;0.70;;
21894;SDS011;11112;51.270;7.224;2022-09-06T11:38:00;3.95;;;1.02;;
21894;SDS011;11112;51.270;7.224;2022-09-06T11:40:34;2.58;;;0.80;;
21894;SDS011;11112;51.270;7.224;2022-09-06T11:43:13;2.00;;;0.70;;
21894;SDS011;11112;51.270;7.224;2022-09-06T11:45:45;1.80;;;0.80;;
21894;SDS011;11112;51.270;7.224;2022-09-06T11:51:31;1.65;;;0.77;;
21894;SDS011;11112;51.270;7.224;2022-09-06T11:54:03;1.90;;;0.70;;
21894;SDS011;11112;51.270;7.224;2022-09-06T11:56:48;3.55;;;0.70;;
21894;SDS011;11112;51.270;7.224;2022-09-06T12:02:33;2.95;;;1.05;;
21894;SDS011;11112;51.270;7.224;2022-09-06T12:05:10;5.03;;;1.10;;
21894;SDS011;11112;51.270;7.224;2022-09-06T12:08:13;4.88;;;0.95;;
21894;SDS011;11112;51.270;7.224;2022-09-06T12:11:00;1.83;;;1.05;;
21894;SDS011;11112;51.270;7.224;2022-09-06T12:13:47;3.85;;;0.90;;
21894;SDS011;11112;51.270;7.224;2022-09-06T12:16:20;2.17;;;0.90;;
21894;SDS011;11112;51.270;7.224;2022-09-06T12:19:01;4.18;;;1.00;;
21894;SDS011;11112;51.270;7.224;2022-09-06T12:21:32;6.65;;;1.00;;
21894;SDS011;11112;51.270;7.224;2022-09-06T12:24:04;4.47;;;0.90;;
21894;SDS011;11112;51.270;7.224;2022-09-06T12:26:48;2.75;;;0.82;;
21894;SDS011;11112;51.270;7.224;2022-09-06T12:29:21;3.33;;;1.10;;
21894;SDS011;11112;51.270;7.224;2022-09-06T12:31:50;2.97;;;1.30;;
21894;SDS011;11112;51.270;7.224;2022-09-06T12:34:23;3.95;;;1.40;;
21894;SDS011;11112;51.270;7.224;2022-09-06T12:36:53;4.22;;;1.50;;
21894;SDS011;11112;51.270;7.224;2022-09-06T12:39:24;2.60;;;1.05;;
21894;SDS011;11112;51.270;7.224;2022-09-06T12:41:55;3.50;;;1.60;;
21894;SDS011;11112;51.270;7.224;2022-09-06T12:44:30;3.27;;;1.20;;
21894;SDS011;11112;51.270;7.224;2022-09-06T12:47:02;3.03;;;1.20;;
21894;SDS011;11112;51.270;7.224;2022-09-06T12:49:35;2.88;;;1.20;;
21894;SDS011;11112;51.270;7.224;2022-09-06T12:52:06;2.85;;;1.30;;
21894;SDS011;11112;51.270;7.224;2022-09-06T12:54:43;3.83;;;1.30;;
21894;SDS011;11112;51.270;7.224;2022-09-06T12:57:13;6.03;;;1.40;;
21894;SDS011;11112;51.270;7.224;2022-09-06T12:59:46;6.57;;;1.38;;
21894;SDS011;11112;51.270;7.224;2022-09-06T13:02:16;4.53;;;1.40;;
21894;SDS011;11112;51.270;7.224;2022-09-06T13:07:18;4.05;;;2.05;;
21894;SDS011;11112;51.270;7.224;2022-09-06T13:09:51;5.22;;;1.92;;
21894;SDS011;11112;51.270;7.224;2022-09-06T13:12:21;5.50;;;1.70;;
21894;SDS011;11112;51.270;7.224;2022-09-06T13:14:53;7.45;;;1.48;;
21894;SDS011;11112;51.270;7.224;2022-09-06T13:17:24;5.07;;;1.70;;
21894;SDS011;11112;51.270;7.224;2022-09-06T13:19:54;3.85;;;1.40;;
21894;SDS011;11112;51.270;7.224;2022-09-06T13:22:36;5.40;;;1.70;;
21894;SDS011;11112;51.270;7.224;2022-09-06T13:25:21;4.15;;;1.60;;
21894;SDS011;11112;51.270;7.224;2022-09-06T13:27:50;4.10;;;1.40;;
21894;SDS011;11112;51.270;7.224;2022-09-06T13:30:28;4.85;;;1.65;;
21894;SDS011;11112;51.270;7.224;2022-09-06T13:32:59;4.20;;;1.80;;
21894;SDS011;11112;51.270;7.224;2022-09-06T13:35:29;6.22;;;1.55;;
21894;SDS011;11112;51.270;7.224;2022-09-06T13:38:18;5.80;;;1.80;;
21894;SDS011;11112;51.270;7.224;2022-09-06T13:40:49;3.47;;;1.30;;
21894;SDS011;11112;51.270;7.224;2022-09-06T13:43:20;5.13;;;1.50;;
21894;SDS011;11112;51.270;7.224;2022-09-06T13:45:49;6.88;;;1.60;;
21894;SDS011;11112;51.270;7.224;2022-09-06T13:48:34;4.72;;;1.52;;
21894;SDS011;11112;51.270;7.224;2022-09-06T13:51:02;9.82;;;2.30;;
21894;SDS011;11112;51.270;7.224;2022-09-06T13:53:32;6.13;;;1.98;;
21894;SDS011;11112;51.270;7.224;2022-09-06T13:56:00;5.55;;;1.80;;
21894;SDS011;11112;51.270;7.224;2022-09-06T13:58:29;5.05;;;1.65;;
21894;SDS011;11112;51.270;7.224;2022-09-06T14:00:56;5.50;;;2.03;;
21894;SDS011;11112;51.270;7.224;2022-09-06T14:03:25;5.40;;;2.28;;
21894;SDS011;11112;51.270;7.224;2022-09-06T14:05:56;5.00;;;1.90;;
21894;SDS011;11112;51.270;7.224;2022-09-06T14:08:23;6.05;;;2.10;;
21894;SDS011;11112;51.270;7.224;2022-09-06T14:10:50;5.63;;;1.90;;
21894;SDS011;11112;51.270;7.224;2022-09-06T14:13:19;6.57;;;2.28;;
21894;SDS011;11112;51.270;7.224;2022-09-06T14:15:48;6.47;;;1.90;;
21894;SDS011;11112;51.270;7.224;2022-09-06T14:18:15;6.40;;;1.70;;
21894;SDS011;11112;51.270;7.224;2022-09-06T14:20:49;5.57;;;1.65;;
21894;SDS011;11112;51.270;7.224;2022-09-06T14:23:18;5.97;;;1.92;;
21894;SDS011;11112;51.270;7.224;2022-09-06T14:25:45;7.80;;;1.88;;
21894;SDS011;11112;51.270;7.224;2022-09-06T14:28:12;10.30;;;1.90;;
21894;SDS011;11112;51.270;7.224;2022-09-06T14:30:41;3.85;;;1.70;;
21894;SDS011;11112;51.270;7.224;2022-09-06T14:33:08;6.10;;;1.35;;
21894;SDS011;11112;51.270;7.224;2022-09-06T14:35:35;2.90;;;1.40;;
21894;SDS011;11112;51.270;7.224;2022-09-06T14:38:04;6.80;;;1.58;;
21894;SDS011;11112;51.270;7.224;2022-09-06T14:40:33;6.35;;;1.80;;
21894;SDS011;11112;51.270;7.224;2022-09-06T14:43:02;3.85;;;1.55;;
21894;SDS011;11112;51.270;7.224;2022-09-06T14:45:31;6.50;;;1.60;;
21894;SDS011;11112;51.270;7.224;2022-09-06T14:48:01;4.10;;;1.20;;
21894;SDS011;11112;51.270;7.224;2022-09-06T14:50:29;8.10;;;1.33;;
21894;SDS011;11112;51.270;7.224;2022-09-06T14:52:56;7.47;;;2.00;;
21894;SDS011;11112;51.270;7.224;2022-09-06T14:55:24;4.00;;;1.60;;
21894;SDS011;11112;51.270;7.224;2022-09-06T14:57:52;9.57;;;1.70;;
21894;SDS011;11112;51.270;7.224;2022-09-06T15:00:19;3.92;;;1.65;;
21894;SDS011;11112;51.270;7.224;2022-09-06T15:02:46;3.25;;;1.13;;
21894;SDS011;11112;51.270;7.224;2022-09-06T15:05:16;8.65;;;1.20;;
21894;SDS011;11112;51.270;7.224;2022-09-06T15:07:43;4.82;;;1.10;;
21894;SDS011;11112;51.270;7.224;2022-09-06T15:10:11;6.40;;;1.30;;
21894;SDS011;11112;51.270;7.224;2022-09-06T15:12:38;7.30;;;1.70;;
21894;SDS011;11112;51.270;7.224;2022-09-06T15:15:05;8.57;;;2.10;;
21894;SDS011;11112;51.270;7.224;2022-09-06T15:17:33;4.47;;;2.10;;
21894;SDS011;11112;51.270;7.224;2022-09-06T15:20:00;7.13;;;2.45;;
21894;SDS011;11112;51.270;7.224;2022-09-06T15:22:30;11.32;;;4.10;;
21894;SDS011;11112;51.270;7.224;2022-09-06T15:24:57;4.95;;;1.80;;
21894;SDS011;11112;51.270;7.224;2022-09-06T15:27:24;5.78;;;1.10;;
21894;SDS011;11112;51.270;7.224;2022-09-06T15:29:52;5.70;;;3.60;;
21894;SDS011;11112;51.270;7.224;2022-09-06T15:32:19;11.02;;;3.08;;
21894;SDS011;11112;51.270;7.224;2022-09-06T15:34:46;10.20;;;6.78;;
21894;SDS011;11112;51.270;7.224;2022-09-06T15:37:14;6.88;;;3.67;;
21894;SDS011;11112;51.270;7.224;2022-09-06T15:39:43;5.32;;;1.88;;
21894;SDS011;11112;51.270;7.224;2022-09-06T15:42:10;3.95;;;1.80;;